Time;durP1;ratioP1;P1;durP2;ratioP2;P2;SDS_P1;SDS_P2;PMS_P1;PMS_P2;Temp;Humidity;BMP_temperature;BMP_pressure;BME280_temperature;BME280_humidity;BME280_pressure;Samples;Min_cycle;Max_cycle;Signal;HPM_P1;HPM_P2
2022/04/17 00:00:10;;;;;;;3.63;3.30;;;8.40;78.20;;;;;;5071945;28;20063;-56
2022/04/17 00:02:39;;;;;;;3.63;3.33;;;8.40;78.10;;;;;;5059702;28;20031;-57
2022/04/17 00:05:06;;;;;;;3.72;3.28;;;8.40;78.30;;;;;;5070277;28;20368;-58
2022/04/17 00:07:32;;;;;;;3.70;3.40;;;8.40;78.20;;;;;;5065858;28;20086;-58
2022/04/17 00:09:58;;;;;;;3.65;3.35;;;8.40;78.20;;;;;;5080750;28;20138;-57
2022/04/17 00:12:26;;;;;;;3.33;3.03;;;8.40;78.20;;;;;;5053909;28;20029;-58
2022/04/17 00:14:52;;;;;;;3.92;3.53;;;8.40;77.90;;;;;;5052013;28;20040;-58
2022/04/17 00:17:19;;;;;;;3.38;3.08;;;8.40;77.90;;;;;;5058113;28;20036;-58
2022/04/17 00:19:45;;;;;;;4.10;3.70;;;8.40;77.90;;;;;;5071890;28;20032;-58
2022/04/17 00:22:12;;;;;;;3.30;3.00;;;8.40;77.80;;;;;;5068777;28;20039;-58
2022/04/17 00:24:39;;;;;;;4.30;3.42;;;8.40;77.80;;;;;;5086925;28;20035;-57
2022/04/17 00:27:04;;;;;;;4.22;3.42;;;8.40;78.00;;;;;;5078816;28;20035;-58
2022/04/17 00:29:30;;;;;;;3.70;3.40;;;8.40;77.80;;;;;;5072007;28;20410;-56
2022/04/17 00:31:59;;;;;;;3.58;3.28;;;8.40;77.80;;;;;;5071958;28;20070;-55
2022/04/17 00:34:26;;;;;;;3.97;3.58;;;8.40;78.10;;;;;;5071964;28;20476;-56
2022/04/17 00:36:52;;;;;;;3.65;3.22;;;8.50;78.20;;;;;;5071759;28;20106;-57
2022/04/17 00:39:18;;;;;;;3.78;3.40;;;8.50;78.10;;;;;;5065204;28;20480;-58
2022/04/17 00:41:46;;;;;;;4.20;3.60;;;8.50;78.10;;;;;;5071899;28;20104;-58
2022/04/17 00:44:13;;;;;;;3.90;3.35;;;8.50;77.90;;;;;;5072158;28;20032;-58
2022/04/17 00:46:40;;;;;;;3.78;3.38;;;8.60;77.90;;;;;;5071998;28;20364;-58
2022/04/17 00:49:06;;;;;;;3.83;3.42;;;8.60;77.70;;;;;;5071849;28;20108;-58
2022/04/17 00:51:34;;;;;;;4.10;3.55;;;8.60;77.70;;;;;;5071886;28;20100;-58
2022/04/17 00:54:02;;;;;;;3.75;3.40;;;8.60;77.70;;;;;;5071322;28;20499;-58
2022/04/17 00:56:29;;;;;;;3.20;2.97;;;8.60;77.70;;;;;;5064731;28;20021;-57
2022/04/17 00:58:55;;;;;;;5.00;3.58;;;8.60;77.40;;;;;;5071114;28;20035;-55
2022/04/17 01:01:21;;;;;;;4.18;3.78;;;8.60;77.30;;;;;;5071624;28;20040;-57
2022/04/17 01:03:51;;;;;;;3.90;3.50;;;8.60;77.30;;;;;;5074166;28;20131;-56
2022/04/17 01:06:17;;;;;;;3.53;3.22;;;8.60;77.20;;;;;;5071737;28;20032;-56
2022/04/17 01:08:43;;;;;;;3.72;3.10;;;8.60;76.90;;;;;;5059089;28;20021;-56
2022/04/17 01:11:10;;;;;;;3.67;3.35;;;8.70;77.00;;;;;;5071314;28;20459;-56
2022/04/17 01:13:39;;;;;;;3.47;3.17;;;8.60;76.80;;;;;;5071115;28;20055;-56
2022/04/17 01:16:05;;;;;;;3.63;3.30;;;8.60;76.80;;;;;;5071524;28;20055;-57
2022/04/17 01:18:57;;;;;;;3.35;2.90;;;8.70;76.80;;;;;;5075187;28;20035;-56
2022/04/17 01:21:24;;;;;;;4.40;3.50;;;8.60;76.60;;;;;;5075021;28;20036;-56
2022/04/17 01:29:19;;;;;;;3.83;3.42;;;8.70;76.70;;;;;;5072343;28;20386;-56
2022/04/17 01:31:46;;;;;;;4.30;3.63;;;8.70;76.40;;;;;;5073528;28;20056;-56
2022/04/17 01:34:15;;;;;;;3.60;3.30;;;8.70;76.30;;;;;;5075348;28;20025;-57
2022/04/17 01:36:44;;;;;;;3.80;3.50;;;8.70;76.10;;;;;;5075290;28;20025;-56
2022/04/17 01:39:11;;;;;;;4.35;3.95;;;8.70;76.00;;;;;;5069180;28;20467;-56
2022/04/17 01:41:37;;;;;;;4.43;3.60;;;8.70;76.10;;;;;;5075267;28;20537;-57
2022/04/17 01:44:03;;;;;;;4.05;3.63;;;8.60;76.00;;;;;;5075173;28;20025;-56
2022/04/17 01:46:29;;;;;;;4.00;3.60;;;8.70;76.00;;;;;;5073917;28;20028;-56
2022/04/17 01:48:55;;;;;;;3.72;3.42;;;8.60;76.10;;;;;;5074897;28;20035;-56
2022/04/17 01:51:21;;;;;;;4.05;3.65;;;8.70;76.00;;;;;;5056924;28;20036;-56
2022/04/17 01:53:48;;;;;;;4.13;3.47;;;8.60;76.00;;;;;;5076915;28;20498;-56
2022/04/17 01:56:13;;;;;;;3.55;3.25;;;8.60;76.10;;;;;;5074526;28;20028;-57
2022/04/17 01:58:39;;;;;;;4.20;3.63;;;8.60;75.90;;;;;;5066572;28;20575;-56
2022/04/17 02:01:06;;;;;;;3.80;3.22;;;8.60;75.90;;;;;;5055310;28;20027;-57
2022/04/17 02:03:31;;;;;;;3.60;3.20;;;8.60;75.90;;;;;;5070129;28;20082;-56
2022/04/17 02:05:57;;;;;;;4.15;3.50;;;8.60;76.00;;;;;;5069683;28;20072;-56
2022/04/17 02:08:24;;;;;;;3.58;3.15;;;8.60;76.00;;;;;;5070113;28;20063;-56
2022/04/17 02:10:49;;;;;;;3.83;3.50;;;8.60;76.00;;;;;;5062895;28;20029;-56
2022/04/17 02:13:15;;;;;;;3.58;3.25;;;8.60;76.10;;;;;;5074489;28;20017;-56
2022/04/17 02:15:41;;;;;;;3.50;3.20;;;8.60;76.10;;;;;;5074263;28;20050;-56
2022/04/17 02:18:07;;;;;;;4.65;3.42;;;8.60;76.00;;;;;;5069139;28;20103;-56
2022/04/17 02:20:32;;;;;;;3.42;3.13;;;8.50;76.00;;;;;;5062143;28;20013;-56
2022/04/17 02:22:59;;;;;;;5.85;4.00;;;8.50;76.00;;;;;;5075661;28;20024;-56
2022/04/17 02:25:25;;;;;;;4.30;3.35;;;8.50;76.00;;;;;;5080076;28;20037;-56
2022/04/17 02:27:51;;;;;;;3.42;3.13;;;8.50;76.10;;;;;;5072132;28;20168;-57
2022/04/17 02:30:17;;;;;;;4.03;3.60;;;8.50;76.10;;;;;;5073348;28;20031;-56
2022/04/17 02:32:42;;;;;;;3.70;2.78;;;8.50;76.20;;;;;;5074308;28;20125;-57
2022/04/17 02:35:10;;;;;;;3.40;3.10;;;8.50;76.10;;;;;;5073951;28;20388;-57
2022/04/17 02:37:38;;;;;;;3.88;3.40;;;8.50;76.20;;;;;;5073873;28;20506;-57
2022/04/17 02:40:05;;;;;;;4.10;3.17;;;8.60;76.20;;;;;;5074161;28;20030;-57
2022/04/17 02:42:31;;;;;;;3.25;2.95;;;8.50;76.10;;;;;;5058579;28;20028;-56
2022/04/17 02:44:57;;;;;;;3.80;3.10;;;8.60;76.00;;;;;;5054152;28;20079;-56
2022/04/17 02:50:07;;;;;;;3.40;3.10;;;8.50;75.80;;;;;;5073932;28;20028;-56
2022/04/17 02:52:33;;;;;;;3.10;2.80;;;8.50;75.70;;;;;;5068313;28;20027;-57
2022/04/17 02:55:00;;;;;;;2.88;2.67;;;8.50;75.70;;;;;;5080677;28;20454;-56
2022/04/17 02:57:26;;;;;;;2.97;2.70;;;8.50;75.70;;;;;;5065428;28;20027;-56
2022/04/17 02:59:52;;;;;;;2.90;2.70;;;8.50;75.80;;;;;;5073676;28;20016;-56
2022/04/17 03:07:45;;;;;;;3.17;2.90;;;8.40;75.70;;;;;;5057044;28;20109;-56
2022/04/17 03:10:11;;;;;;;3.38;3.08;;;8.50;75.80;;;;;;5070920;28;20495;-57
2022/04/17 03:12:37;;;;;;;3.13;2.88;;;8.50;76.00;;;;;;5063715;28;20100;-56
2022/04/17 03:15:04;;;;;;;3.05;2.75;;;8.50;76.20;;;;;;5071212;28;20029;-56
2022/04/17 03:17:31;;;;;;;2.90;2.65;;;8.50;76.10;;;;;;5053105;28;20041;-56
2022/04/17 03:19:57;;;;;;;3.40;3.10;;;8.50;76.30;;;;;;5053585;28;20495;-56
2022/04/17 03:22:24;;;;;;;3.75;3.38;;;8.50;76.30;;;;;;5062809;28;20020;-56
2022/04/17 03:24:50;;;;;;;3.30;3.00;;;8.50;76.50;;;;;;5072930;28;20498;-56
2022/04/17 03:27:15;;;;;;;3.45;3.03;;;8.50;76.50;;;;;;5073112;28;20017;-56
2022/04/17 03:29:41;;;;;;;3.30;3.00;;;8.50;76.50;;;;;;5066279;28;20028;-56
2022/04/17 03:32:07;;;;;;;3.05;2.75;;;8.50;76.50;;;;;;5079171;28;20032;-55
2022/04/17 03:34:33;;;;;;;3.10;2.80;;;8.50;76.30;;;;;;5072851;28;20074;-56
2022/04/17 03:36:58;;;;;;;3.25;2.95;;;8.50;76.30;;;;;;5072985;28;20472;-54
2022/04/17 03:39:25;;;;;;;2.90;2.60;;;8.60;76.40;;;;;;5072734;28;20082;-56
2022/04/17 03:41:51;;;;;;;3.60;3.10;;;8.50;76.30;;;;;;5071948;28;20497;-56
2022/04/17 03:44:17;;;;;;;3.08;2.78;;;8.50;76.30;;;;;;5072732;28;20031;-56
2022/04/17 03:46:43;;;;;;;2.55;2.35;;;8.60;76.10;;;;;;5059701;28;20087;-56
2022/04/17 03:49:09;;;;;;;3.20;2.80;;;8.50;76.00;;;;;;5072800;28;20020;-56
2022/04/17 03:51:35;;;;;;;2.97;2.78;;;8.50;76.00;;;;;;5061978;28;20012;-56
2022/04/17 03:54:01;;;;;;;2.65;2.45;;;8.50;76.10;;;;;;5068095;28;20500;-56
2022/04/17 03:56:27;;;;;;;3.25;2.78;;;8.50;75.80;;;;;;5058192;28;20020;-56
2022/04/17 03:58:53;;;;;;;3.17;2.90;;;8.50;75.80;;;;;;5072806;28;20043;-57
2022/04/17 04:01:18;;;;;;;3.03;2.72;;;8.50;75.80;;;;;;5072673;28;20077;-56
2022/04/17 04:03:44;;;;;;;3.33;2.97;;;8.50;75.70;;;;;;5061230;28;20105;-56
2022/04/17 04:06:10;;;;;;;2.67;2.47;;;8.50;76.00;;;;;;5072751;28;20029;-56
2022/04/17 04:08:36;;;;;;;3.42;2.90;;;8.50;75.80;;;;;;5072962;28;20387;-56
2022/04/17 04:11:01;;;;;;;3.15;2.85;;;8.40;75.90;;;;;;5073687;28;20104;-56
2022/04/17 04:13:27;;;;;;;3.40;2.72;;;8.40;75.90;;;;;;5072330;28;20440;-56
2022/04/17 04:15:55;;;;;;;3.42;2.88;;;8.40;75.80;;;;;;5073654;28;20491;-57
2022/04/17 04:18:21;;;;;;;3.70;3.30;;;8.40;76.00;;;;;;5078730;28;20040;-57
2022/04/17 04:20:47;;;;;;;3.28;2.90;;;8.40;76.00;;;;;;5071630;28;20035;-56
2022/04/17 04:23:13;;;;;;;3.00;2.70;;;8.40;76.00;;;;;;5072531;28;20527;-56
2022/04/17 04:25:38;;;;;;;4.32;3.45;;;8.40;76.00;;;;;;5084201;28;20101;-56
2022/04/17 04:30:48;;;;;;;2.90;2.65;;;8.50;76.10;;;;;;5065949;28;20123;-57
2022/04/17 04:33:14;;;;;;;2.97;2.65;;;8.40;76.00;;;;;;5072460;28;20504;-57
2022/04/17 04:35:40;;;;;;;2.50;2.40;;;8.40;76.00;;;;;;5072341;28;20506;-56
2022/04/17 04:38:06;;;;;;;2.85;2.63;;;8.40;76.00;;;;;;5062603;28;20017;-57
2022/04/17 04:40:32;;;;;;;3.65;2.80;;;8.40;76.20;;;;;;5072537;28;20052;-57
2022/04/17 04:43:01;;;;;;;3.08;2.70;;;8.40;76.30;;;;;;5071793;28;20032;-57
2022/04/17 04:48:12;;;;;;;3.33;3.00;;;8.50;76.50;;;;;;5072513;28;20032;-56
2022/04/17 04:50:38;;;;;;;3.38;3.08;;;8.60;76.90;;;;;;5072368;28;20060;-56
2022/04/17 04:53:04;;;;;;;2.90;2.70;;;8.60;76.80;;;;;;5073885;28;20432;-56
2022/04/17 04:55:30;;;;;;;3.15;2.90;;;8.70;76.60;;;;;;5070913;28;20111;-56
2022/04/17 04:57:55;;;;;;;3.50;3.20;;;8.70;76.40;;;;;;5075895;28;20025;-57
2022/04/17 05:00:21;;;;;;;2.90;2.70;;;8.80;76.50;;;;;;5057589;28;20039;-58
2022/04/17 05:02:47;;;;;;;2.97;2.78;;;8.90;76.50;;;;;;5076240;28;20115;-56
2022/04/17 05:05:13;;;;;;;3.20;2.90;;;9.00;76.40;;;;;;5076095;28;20068;-56
2022/04/17 05:07:39;;;;;;;2.72;2.53;;;9.10;76.20;;;;;;5075863;28;20103;-56
2022/04/17 05:10:06;;;;;;;2.80;2.55;;;9.30;76.60;;;;;;5070862;28;20427;-56
2022/04/17 05:12:32;;;;;;;3.00;2.70;;;9.60;76.90;;;;;;5059473;28;20381;-56
2022/04/17 05:14:58;;;;;;;3.00;2.70;;;9.90;75.80;;;;;;5066222;28;20028;-56
2022/04/17 05:17:24;;;;;;;2.88;2.60;;;10.20;74.80;;;;;;5075713;28;20040;-56
2022/04/17 05:19:50;;;;;;;2.80;2.60;;;10.40;74.50;;;;;;5075678;28;20039;-56
2022/04/17 05:22:20;;;;;;;2.70;2.50;;;10.60;74.40;;;;;;5075456;28;20082;-56
2022/04/17 05:24:47;;;;;;;2.75;2.55;;;10.90;73.50;;;;;;5076037;28;20345;-56
2022/04/17 05:27:13;;;;;;;2.35;2.20;;;11.00;72.40;;;;;;5074342;28;20399;-56
2022/04/17 05:29:40;;;;;;;2.60;2.40;;;11.10;71.50;;;;;;5062274;28;20032;-56
2022/04/17 05:32:06;;;;;;;2.85;2.65;;;11.10;70.90;;;;;;5074882;28;20021;-56
2022/04/17 05:34:32;;;;;;;2.72;2.53;;;11.00;70.70;;;;;;5075582;28;20494;-56
2022/04/17 05:36:58;;;;;;;2.80;2.60;;;10.80;70.70;;;;;;5076177;28;20047;-56
2022/04/17 05:39:23;;;;;;;2.50;2.30;;;10.70;70.70;;;;;;5075410;28;20025;-56
2022/04/17 05:41:50;;;;;;;2.70;2.50;;;10.60;71.00;;;;;;5075272;28;20027;-56
2022/04/17 05:44:16;;;;;;;2.70;2.50;;;10.50;71.10;;;;;;5070024;28;20061;-56
2022/04/17 05:46:42;;;;;;;2.72;2.53;;;10.40;71.50;;;;;;5083315;28;20064;-56
2022/04/17 05:49:08;;;;;;;2.95;2.65;;;10.40;71.60;;;;;;5062020;28;20494;-56
2022/04/17 05:51:35;;;;;;;3.22;2.92;;;10.30;71.60;;;;;;5074965;28;20020;-56
2022/04/17 05:54:05;;;;;;;3.10;2.90;;;10.20;71.60;;;;;;5075307;28;20031;-56
2022/04/17 05:56:31;;;;;;;3.45;3.13;;;10.20;72.10;;;;;;5075252;28;20029;-57
2022/04/17 05:58:57;;;;;;;3.00;2.80;;;10.20;72.00;;;;;;5075004;28;20089;-56
2022/04/17 06:01:24;;;;;;;3.80;3.40;;;10.10;71.80;;;;;;5074266;28;20028;-55
2022/04/17 06:03:50;;;;;;;2.90;2.70;;;10.10;71.80;;;;;;5073828;28;20066;-56
2022/04/17 06:06:20;;;;;;;3.20;2.63;;;10.10;72.00;;;;;;5068783;28;20086;-56
2022/04/17 06:08:46;;;;;;;2.80;2.60;;;10.10;72.20;;;;;;5074154;28;20016;-56
2022/04/17 06:11:13;;;;;;;2.85;2.65;;;10.10;72.20;;;;;;5072117;28;20025;-56
2022/04/17 06:13:38;;;;;;;2.65;2.45;;;10.20;72.10;;;;;;5075119;28;20344;-56
2022/04/17 06:16:04;;;;;;;2.60;2.40;;;10.20;72.10;;;;;;5074235;28;20036;-56
2022/04/17 06:18:30;;;;;;;2.45;2.28;;;10.20;71.90;;;;;;5074033;28;20043;-56
2022/04/17 06:20:56;;;;;;;2.38;2.17;;;10.20;71.70;;;;;;5064394;28;20413;-56
2022/04/17 06:23:22;;;;;;;2.60;2.40;;;10.10;71.50;;;;;;5068504;28;20037;-57
2022/04/17 06:25:48;;;;;;;2.40;2.20;;;10.10;71.50;;;;;;5073820;28;20033;-58
2022/04/17 06:28:13;;;;;;;2.05;1.95;;;10.10;71.70;;;;;;5074016;28;20082;-60
2022/04/17 06:30:39;;;;;;;2.13;2.03;;;10.00;71.50;;;;;;5070334;28;20579;-58
2022/04/17 06:33:04;;;;;;;1.95;1.85;;;10.00;71.40;;;;;;5069798;28;20056;-58
2022/04/17 06:35:30;;;;;;;2.38;2.17;;;10.00;71.50;;;;;;5073195;28;20054;-58
2022/04/17 06:38:01;;;;;;;2.00;1.90;;;9.90;71.20;;;;;;5074382;28;20024;-57
2022/04/17 06:40:32;;;;;;;1.83;1.73;;;9.90;71.20;;;;;;5068188;28;20031;-58
2022/04/17 06:43:00;;;;;;;1.90;1.80;;;9.90;71.10;;;;;;5063895;28;20397;-57
2022/04/17 06:45:26;;;;;;;2.08;1.98;;;9.90;71.00;;;;;;5073260;28;20054;-57
2022/04/17 06:47:52;;;;;;;2.50;2.30;;;9.90;70.90;;;;;;5068255;28;20357;-57
2022/04/17 06:50:19;;;;;;;2.25;2.10;;;9.90;70.80;;;;;;5073853;28;20021;-58
2022/04/17 06:52:45;;;;;;;2.08;1.98;;;9.90;70.80;;;;;;5067800;28;20481;-58
2022/04/17 06:55:12;;;;;;;2.30;2.20;;;9.80;70.80;;;;;;5072924;28;20127;-58
2022/04/17 06:57:43;;;;;;;2.30;2.10;;;9.90;71.00;;;;;;5071269;28;20476;-57
2022/04/17 07:00:10;;;;;;;3.45;2.50;;;9.90;70.70;;;;;;5073414;28;20027;-57
2022/04/17 07:02:37;;;;;;;2.80;2.60;;;9.80;70.70;;;;;;5073569;28;20108;-58
2022/04/17 07:05:03;;;;;;;4.70;3.22;;;9.80;70.70;;;;;;5072980;28;20464;-58
2022/04/17 07:07:29;;;;;;;3.97;3.58;;;9.80;70.80;;;;;;5073630;28;20082;-58
2022/04/17 07:09:55;;;;;;;3.97;3.50;;;9.70;71.10;;;;;;5072466;28;20024;-57
2022/04/17 07:12:21;;;;;;;3.78;3.45;;;9.80;71.40;;;;;;5071348;28;20063;-60
2022/04/17 07:14:47;;;;;;;3.47;3.03;;;9.80;71.30;;;;;;5070412;28;20035;-58
2022/04/17 07:17:13;;;;;;;4.07;3.40;;;9.80;71.50;;;;;;5072939;28;20385;-58
2022/04/17 07:19:39;;;;;;;3.30;3.00;;;9.90;71.50;;;;;;5071886;28;20103;-58
2022/04/17 07:22:05;;;;;;;3.38;3.08;;;10.00;71.60;;;;;;5073429;28;20460;-58
2022/04/17 07:24:30;;;;;;;3.13;2.83;;;10.10;71.60;;;;;;5073209;28;20043;-58
2022/04/17 07:26:58;;;;;;;3.20;2.92;;;10.20;71.60;;;;;;5072248;28;20116;-58
2022/04/17 07:29:24;;;;;;;3.42;3.10;;;10.30;71.20;;;;;;5055075;28;20507;-58
2022/04/17 07:31:51;;;;;;;3.70;3.30;;;10.40;71.00;;;;;;5055020;28;20024;-58
2022/04/17 07:34:18;;;;;;;3.65;3.25;;;10.50;70.90;;;;;;5074306;28;20025;-58
2022/04/17 07:36:44;;;;;;;2.85;2.65;;;10.50;70.70;;;;;;5075734;28;20040;-59
2022/04/17 07:39:10;;;;;;;2.70;2.50;;;10.60;70.40;;;;;;5067133;28;20114;-59
2022/04/17 07:41:36;;;;;;;2.58;2.38;;;10.70;70.30;;;;;;5073095;28;20071;-59
2022/04/17 07:44:01;;;;;;;2.42;2.22;;;10.70;70.10;;;;;;5065060;28;20383;-59
2022/04/17 07:46:27;;;;;;;2.67;2.42;;;10.80;69.60;;;;;;5073044;28;20032;-59
2022/04/17 07:48:53;;;;;;;2.08;1.98;;;10.90;69.30;;;;;;5064487;28;20033;-59
2022/04/17 07:51:18;;;;;;;3.13;2.83;;;11.00;69.30;;;;;;5061211;28;20024;-59
2022/04/17 07:53:44;;;;;;;2.85;2.63;;;11.00;68.90;;;;;;5073327;28;20381;-59
2022/04/17 07:56:10;;;;;;;2.30;2.10;;;11.10;68.60;;;;;;5072658;28;20059;-59
2022/04/17 07:58:37;;;;;;;2.40;2.22;;;11.20;68.30;;;;;;5073127;28;20492;-59
2022/04/17 08:01:14;;;;;;;1.95;1.85;;;11.20;68.30;;;;;;5072517;28;20029;-59
2022/04/17 08:06:06;;;;;;;2.28;2.13;;;11.30;67.60;;;;;;5058515;28;20029;-57
2022/04/17 08:08:36;;;;;;;2.45;2.25;;;11.30;67.40;;;;;;5062626;28;20028;-59
2022/04/17 08:11:02;;;;;;;2.35;2.15;;;11.30;67.40;;;;;;5057034;28;20096;-59
2022/04/17 08:13:28;;;;;;;2.10;2.00;;;11.40;67.20;;;;;;5052676;28;20107;-59
2022/04/17 08:15:54;;;;;;;2.00;1.90;;;11.40;67.00;;;;;;5064750;28;20512;-59
2022/04/17 08:18:20;;;;;;;1.80;1.70;;;11.40;66.90;;;;;;5071502;28;20021;-59
2022/04/17 08:20:46;;;;;;;2.17;1.98;;;11.40;66.50;;;;;;5072622;28;20073;-60
2022/04/17 08:23:11;;;;;;;2.03;1.90;;;11.40;66.30;;;;;;5063679;28;20380;-58
2022/04/17 08:25:38;;;;;;;2.28;2.08;;;11.40;66.00;;;;;;5069434;28;20029;-58
2022/04/17 08:28:05;;;;;;;2.25;2.10;;;11.40;65.70;;;;;;5067213;28;20038;-58
2022/04/17 08:30:32;;;;;;;2.00;1.90;;;11.40;65.70;;;;;;5076722;28;20023;-58
2022/04/17 08:33:03;;;;;;;2.00;1.90;;;11.50;65.60;;;;;;5076635;28;20077;-58
2022/04/17 08:35:29;;;;;;;2.20;2.00;;;11.50;65.70;;;;;;5076252;28;20032;-58
2022/04/17 08:37:57;;;;;;;1.48;1.48;;;11.50;65.40;;;;;;5076492;28;20384;-58
2022/04/17 08:40:26;;;;;;;1.95;1.85;;;11.50;65.20;;;;;;5075966;28;20480;-58
2022/04/17 08:42:52;;;;;;;2.10;2.00;;;11.50;65.20;;;;;;5076441;28;20024;-58
2022/04/17 08:45:18;;;;;;;2.03;1.83;;;11.50;65.20;;;;;;5076389;28;20063;-57
2022/04/17 08:47:44;;;;;;;2.30;2.10;;;11.50;65.30;;;;;;5076276;28;20016;-58
2022/04/17 08:50:14;;;;;;;2.30;2.10;;;11.50;65.00;;;;;;5076553;28;20021;-58
2022/04/17 08:52:41;;;;;;;1.73;1.63;;;11.50;64.70;;;;;;5075846;28;20069;-58
2022/04/17 08:55:07;;;;;;;1.98;1.88;;;11.60;64.60;;;;;;5068339;28;20060;-58
2022/04/17 08:57:33;;;;;;;1.55;1.52;;;11.60;64.40;;;;;;5076409;28;20487;-58
2022/04/17 08:59:59;;;;;;;3.38;3.08;;;11.60;64.40;;;;;;5076200;28;20021;-57
2022/04/17 09:02:24;;;;;;;2.03;1.92;;;11.70;64.40;;;;;;5076631;28;20036;-58
2022/04/17 09:04:50;;;;;;;1.98;1.88;;;11.70;64.00;;;;;;5070322;28;20108;-56
2022/04/17 09:07:16;;;;;;;2.03;1.92;;;11.70;63.60;;;;;;5056693;28;20106;-58
2022/04/17 09:09:54;;;;;;;1.60;1.60;;;11.80;63.30;;;;;;5069298;28;20426;-58
2022/04/17 09:12:25;;;;;;;1.70;1.60;;;11.90;63.20;;;;;;5074687;28;20036;-58
2022/04/17 09:14:51;;;;;;;1.50;1.40;;;11.90;63.00;;;;;;5074449;28;20088;-57
2022/04/17 09:17:18;;;;;;;2.28;2.08;;;11.90;62.90;;;;;;5080183;28;20040;-58
2022/04/17 09:19:44;;;;;;;1.70;1.60;;;12.00;62.70;;;;;;5075808;28;20107;-58
2022/04/17 09:22:12;;;;;;;1.73;1.63;;;12.00;62.60;;;;;;5074522;28;20021;-56
2022/04/17 09:24:39;;;;;;;1.80;1.70;;;12.10;62.50;;;;;;5072978;28;20036;-58
2022/04/17 09:27:06;;;;;;;1.70;1.60;;;12.10;62.20;;;;;;5072972;28;20056;-57
2022/04/17 09:29:35;;;;;;;1.70;1.60;;;12.10;62.00;;;;;;5075428;28;20021;-58
2022/04/17 09:32:07;;;;;;;1.50;1.45;;;12.10;62.60;;;;;;5075551;28;20063;-58
2022/04/17 09:34:50;;;;;;;1.48;1.38;;;12.20;61.80;;;;;;5075342;28;20017;-57
2022/04/17 09:37:21;;;;;;;1.55;1.45;;;12.20;61.70;;;;;;5075097;28;20024;-58
2022/04/17 09:39:48;;;;;;;3.00;2.53;;;12.20;61.30;;;;;;5061973;28;20052;-58
2022/04/17 09:42:21;;;;;;;1.95;1.85;;;12.20;60.90;;;;;;5074309;28;20039;-58
2022/04/17 09:44:48;;;;;;;1.70;1.60;;;12.20;60.70;;;;;;5079660;28;20436;-58
2022/04/17 09:47:27;;;;;;;1.60;1.50;;;12.20;60.50;;;;;;5075302;28;20383;-58
2022/04/17 09:50:07;;;;;;;1.25;1.25;;;12.30;60.30;;;;;;5075216;28;20028;-58
2022/04/17 09:52:44;;;;;;;1.20;1.20;;;12.30;60.40;;;;;;5075192;28;20028;-58
2022/04/17 09:55:11;;;;;;;1.88;1.77;;;12.40;60.40;;;;;;5070154;28;20030;-58
2022/04/17 09:57:39;;;;;;;1.52;1.42;;;12.40;60.30;;;;;;5075430;28;20020;-58
2022/04/17 10:00:15;;;;;;;1.70;1.60;;;12.40;60.00;;;;;;5061662;28;20032;-58
2022/04/17 10:02:44;;;;;;;1.67;1.58;;;12.40;60.00;;;;;;5061807;28;20423;-58
2022/04/17 10:05:12;;;;;;;1.48;1.40;;;12.40;60.20;;;;;;5061224;28;20031;-58
2022/04/17 10:07:41;;;;;;;1.52;1.42;;;12.30;60.30;;;;;;5074859;28;20031;-58
2022/04/17 10:10:08;;;;;;;1.67;1.58;;;12.30;60.20;;;;;;5073442;28;20100;-58
2022/04/17 10:12:34;;;;;;;1.60;1.50;;;12.30;60.20;;;;;;5056218;28;20087;-58
2022/04/17 10:15:04;;;;;;;1.85;1.75;;;12.20;60.20;;;;;;5071448;28;20086;-58
2022/04/17 10:17:31;;;;;;;1.80;1.70;;;12.10;60.10;;;;;;5074071;28;20109;-58
2022/04/17 10:20:02;;;;;;;1.60;1.50;;;12.00;60.20;;;;;;5074813;28;20032;-58
2022/04/17 10:22:33;;;;;;;2.08;1.88;;;12.00;60.00;;;;;;5074948;28;20031;-57
2022/04/17 10:24:59;;;;;;;2.08;1.92;;;11.90;59.90;;;;;;5074944;28;20460;-58
2022/04/17 10:27:48;;;;;;;1.75;1.65;;;11.90;60.10;;;;;;5060599;28;20047;-58
2022/04/17 10:30:18;;;;;;;1.83;1.73;;;11.80;60.00;;;;;;5071899;28;20031;-58
2022/04/17 10:32:46;;;;;;;1.80;1.48;;;11.80;60.00;;;;;;5064060;28;20035;-58
2022/04/17 10:35:28;;;;;;;1.77;1.67;;;11.70;60.10;;;;;;5073572;28;20024;-58
2022/04/17 10:38:11;;;;;;;;;;;11.60;60.20;;;;;;5075087;28;20035;-57
2022/04/17 10:40:37;;;;;;;1.25;1.25;;;11.50;59.80;;;;;;5060601;28;19909;-58
2022/04/17 10:43:05;;;;;;;1.70;1.60;;;11.50;60.40;;;;;;5074208;28;20021;-57
2022/04/17 10:45:31;;;;;;;1.98;1.88;;;11.50;60.30;;;;;;5080934;28;20044;-58
2022/04/17 10:48:12;;;;;;;2.00;1.90;;;11.50;60.60;;;;;;5052206;28;20439;-58
2022/04/17 10:50:55;;;;;;;1.80;1.70;;;11.60;60.70;;;;;;5060961;28;20083;-58
2022/04/17 10:53:31;;;;;;;1.52;1.52;;;11.60;60.60;;;;;;5056144;28;20024;-57
2022/04/17 10:56:14;;;;;;;1.80;1.70;;;11.70;60.40;;;;;;5073908;28;20024;-58
2022/04/17 10:58:48;;;;;;;1.90;1.80;;;11.80;61.00;;;;;;5073752;28;20052;-58
2022/04/17 11:01:15;;;;;;;1.83;1.73;;;11.80;60.50;;;;;;5073960;28;20032;-58
2022/04/17 11:03:54;;;;;;;2.28;2.08;;;11.80;60.50;;;;;;5059655;28;20074;-58
2022/04/17 11:06:31;;;;;;;1.85;1.75;;;11.90;60.30;;;;;;5073667;28;20060;-58
2022/04/17 11:09:24;;;;;;;1.63;1.52;;;11.90;60.40;;;;;;5068147;28;20031;-57
2022/04/17 11:11:51;;;;;;;1.30;1.30;;;12.00;60.30;;;;;;5066044;28;20403;-58
2022/04/17 11:14:26;;;;;;;1.95;1.85;;;12.00;60.10;;;;;;5067309;28;20402;-58
2022/04/17 11:16:53;;;;;;;1.77;1.67;;;12.10;60.00;;;;;;5073645;28;20063;-58
2022/04/17 11:19:24;;;;;;;2.03;1.92;;;12.10;59.70;;;;;;5064941;28;20044;-58
2022/04/17 11:21:55;;;;;;;1.88;1.77;;;12.10;59.40;;;;;;5068952;28;20040;-58
2022/04/17 11:24:22;;;;;;;1.85;1.75;;;12.10;59.30;;;;;;5070167;28;20106;-56
2022/04/17 11:26:53;;;;;;;2.20;2.00;;;12.10;59.20;;;;;;5070554;28;20137;-58
2022/04/17 11:29:35;;;;;;;;;;;12.10;59.00;;;;;;5070302;28;20036;-58
2022/04/17 11:32:02;;;;;;;1.80;1.70;;;12.10;59.00;;;;;;5073319;28;19904;-58
2022/04/17 11:34:42;;;;;;;2.08;1.98;;;12.10;59.50;;;;;;5069146;28;20025;-57
2022/04/17 11:37:07;;;;;;;1.98;1.88;;;12.10;59.20;;;;;;5073344;28;20036;-58
2022/04/17 11:39:34;;;;;;;2.30;2.10;;;12.10;59.20;;;;;;5073080;28;20025;-58
2022/04/17 11:41:59;;;;;;;2.10;1.92;;;12.10;59.30;;;;;;5072722;28;20029;-58
2022/04/17 11:44:25;;;;;;;2.08;1.98;;;12.10;59.40;;;;;;5072509;28;20033;-58
2022/04/17 11:46:51;;;;;;;2.33;2.13;;;12.20;59.30;;;;;;5072677;28;20365;-57
2022/04/17 11:49:18;;;;;;;2.20;2.00;;;12.20;59.30;;;;;;5073022;28;20099;-58
2022/04/17 11:51:43;;;;;;;2.28;2.08;;;12.30;59.40;;;;;;5070776;28;20020;-58
2022/04/17 11:54:32;;;;;;;2.28;2.08;;;12.30;59.50;;;;;;5073382;28;20027;-58
2022/04/17 11:56:58;;;;;;;3.85;2.17;;;12.40;59.50;;;;;;5071680;28;20029;-57
2022/04/17 11:59:24;;;;;;;2.15;1.98;;;12.40;59.60;;;;;;5061166;28;20149;-58
2022/04/17 12:02:09;;;;;;;2.30;2.10;;;12.50;59.50;;;;;;5073208;28;20028;-58
2022/04/17 12:04:36;;;;;;;2.08;1.98;;;12.50;59.50;;;;;;5073182;28;20025;-58
2022/04/17 12:07:02;;;;;;;1.90;1.80;;;12.50;59.60;;;;;;5071870;28;20032;-57
2022/04/17 12:09:28;;;;;;;1.92;1.83;;;12.50;59.30;;;;;;5078790;28;20430;-58
2022/04/17 12:11:53;;;;;;;1.70;1.60;;;12.50;58.90;;;;;;5059916;28;20025;-57
2022/04/17 12:14:29;;;;;;;1.80;1.70;;;12.50;58.80;;;;;;5073705;28;20047;-58
2022/04/17 12:16:55;;;;;;;2.17;1.98;;;12.50;58.60;;;;;;5079641;28;20091;-58
2022/04/17 12:19:20;;;;;;;1.75;1.65;;;12.40;58.60;;;;;;5072730;28;20032;-58
2022/04/17 12:21:47;;;;;;;1.92;1.83;;;12.40;59.20;;;;;;5072655;28;20388;-58
2022/04/17 12:24:13;;;;;;;1.60;1.50;;;12.40;58.50;;;;;;5072185;28;20490;-57
2022/04/17 12:26:40;;;;;;;2.03;1.88;;;12.30;58.70;;;;;;5067370;28;20032;-58
2022/04/17 12:29:06;;;;;;;1.90;1.80;;;12.30;58.50;;;;;;5066442;28;20044;-58
2022/04/17 12:31:33;;;;;;;2.20;2.03;;;12.20;58.60;;;;;;5078772;28;20028;-58
2022/04/17 12:34:19;;;;;;;2.10;2.00;;;12.10;58.80;;;;;;5062190;28;20024;-58
2022/04/17 12:36:48;;;;;;;2.50;2.30;;;12.00;59.10;;;;;;5073247;28;20456;-58
2022/04/17 12:39:13;;;;;;;2.17;2.08;;;11.90;58.90;;;;;;5075228;28;20034;-58
2022/04/17 12:41:53;;;;;;;2.20;2.00;;;11.80;58.80;;;;;;5071821;28;20449;-58
2022/04/17 12:44:33;;;;;;;2.15;2.05;;;11.70;58.90;;;;;;5073114;28;20033;-57
2022/04/17 12:47:13;;;;;;;2.60;2.40;;;11.60;58.50;;;;;;5072860;28;20052;-58
2022/04/17 12:49:39;;;;;;;2.50;2.30;;;11.50;58.60;;;;;;5066437;28;20029;-58
2022/04/17 12:52:05;;;;;;;2.78;2.58;;;11.40;59.10;;;;;;5067633;28;20039;-58
2022/04/17 12:54:32;;;;;;;2.40;2.20;;;11.30;59.40;;;;;;5072440;28;20021;-58
2022/04/17 12:57:06;;;;;;;2.50;2.30;;;11.30;59.80;;;;;;5071873;28;20036;-58
2022/04/17 12:59:42;;;;;;;2.30;2.10;;;11.30;60.00;;;;;;5072586;28;20060;-58
2022/04/17 13:02:24;;;;;;;2.63;2.42;;;11.30;60.30;;;;;;5072531;28;20032;-58
2022/04/17 13:04:55;;;;;;;2.88;2.38;;;11.30;60.40;;;;;;5061198;28;20056;-58
2022/04/17 13:07:21;;;;;;;2.10;2.00;;;11.40;60.80;;;;;;5065834;28;20442;-58
2022/04/17 13:10:02;;;;;;;2.63;2.42;;;11.40;60.90;;;;;;5081364;28;20038;-57
2022/04/17 13:12:31;;;;;;;2.10;2.00;;;11.40;60.70;;;;;;5072638;28;20048;-58
2022/04/17 13:14:58;;;;;;;3.17;2.30;;;11.40;60.70;;;;;;5075974;28;20029;-58
2022/04/17 13:17:24;;;;;;;2.25;2.10;;;11.40;60.80;;;;;;5073448;28;20544;-58